createdAt,value
2019-02-23T00:00:53.770Z,3.93
2019-02-23T00:03:42.771Z,2.73
2019-02-23T00:06:32.658Z,3.67
2019-02-23T00:09:21.662Z,2.90
2019-02-23T00:12:10.970Z,2.10
2019-02-23T00:15:00.665Z,2.40
2019-02-23T00:17:49.408Z,2.57
2019-02-23T00:20:38.860Z,3.53
2019-02-23T00:23:28.147Z,3.20
2019-02-23T00:26:17.012Z,2.70
2019-02-23T00:29:06.299Z,2.50
2019-02-23T00:31:55.770Z,2.93
2019-02-23T00:34:44.530Z,3.73
2019-02-23T00:37:33.534Z,2.50
2019-02-23T00:40:22.760Z,2.30
2019-02-23T00:43:11.887Z,2.70
2019-02-23T00:46:01.265Z,2.80
2019-02-23T00:48:50.450Z,3.47
2019-02-23T00:51:39.243Z,2.60
2019-02-23T00:54:29.303Z,1.67
2019-02-23T00:57:18.893Z,3.33
2019-02-23T01:00:09.066Z,2.93
2019-02-23T01:02:58.674Z,1.93
2019-02-23T01:05:47.900Z,2.63
2019-02-23T01:08:36.903Z,1.83
2019-02-23T01:11:26.131Z,3.10
2019-02-23T01:14:15.538Z,2.50
2019-02-23T01:17:04.395Z,3.37
2019-02-23T01:19:53.777Z,2.70
2019-02-23T01:22:43.014Z,2.00
2019-02-23T01:25:32.600Z,4.90
2019-02-23T01:28:21.845Z,3.40
2019-02-23T01:31:10.738Z,1.77
2019-02-23T01:33:59.520Z,2.80
2019-02-23T01:36:48.869Z,2.13
2019-02-23T01:39:38.658Z,2.07
2019-02-23T01:42:27.481Z,4.00
2019-02-23T01:45:16.482Z,2.57
2019-02-23T01:48:05.593Z,2.77
2019-02-23T01:50:54.946Z,2.30
2019-02-23T01:53:44.485Z,1.60
2019-02-23T01:56:33.401Z,3.50
2019-02-23T01:59:22.384Z,2.53
2019-02-23T02:02:11.438Z,2.10
2019-02-23T02:05:00.886Z,2.37
2019-02-23T02:07:50.216Z,2.27
2019-02-23T02:10:39.165Z,3.10
2019-02-23T02:13:28.312Z,2.20
2019-02-23T02:16:17.300Z,2.90
2019-02-23T02:19:06.447Z,1.53
2019-02-23T02:21:56.397Z,2.40
2019-02-23T02:24:45.988Z,1.90
2019-02-23T02:27:35.206Z,2.60
2019-02-23T02:30:24.271Z,2.47
2019-02-23T02:33:13.210Z,1.90
2019-02-23T02:36:01.911Z,1.90
2019-02-23T02:38:50.456Z,1.47
2019-02-23T02:41:39.164Z,2.00
2019-02-23T02:44:28.498Z,1.70
2019-02-23T02:47:17.611Z,2.67
2019-02-23T02:50:07.997Z,2.17
2019-02-23T02:52:57.277Z,2.00
2019-02-23T02:55:46.028Z,1.93
2019-02-23T02:58:34.904Z,3.53
2019-02-23T03:01:23.858Z,2.57
2019-02-23T03:04:13.014Z,2.40
2019-02-23T03:07:02.060Z,3.27
2019-02-23T03:09:51.092Z,3.20
2019-02-23T03:12:40.090Z,2.57
2019-02-23T03:15:29.276Z,2.90
2019-02-23T03:18:18.460Z,3.67
2019-02-23T03:21:07.522Z,1.97
2019-02-23T03:23:57.136Z,2.87
2019-02-23T03:26:46.174Z,1.70
2019-02-23T03:29:34.984Z,2.27
2019-02-23T03:32:23.874Z,2.13
2019-02-23T03:35:12.824Z,2.17
2019-02-23T03:38:02.146Z,3.10
2019-02-23T03:40:51.296Z,2.37
2019-02-23T03:43:40.475Z,2.30
2019-02-23T03:46:29.952Z,2.93
2019-02-23T03:49:19.002Z,2.53
2019-02-23T03:52:08.029Z,1.97
2019-02-23T03:54:56.953Z,1.63
2019-02-23T03:57:46.101Z,1.83
2019-02-23T04:00:35.399Z,2.13
2019-02-23T04:03:23.917Z,2.07
2019-02-23T04:06:13.153Z,2.70
2019-02-23T04:09:02.892Z,3.50
2019-02-23T04:11:52.119Z,2.30
2019-02-23T04:14:41.716Z,2.67
2019-02-23T04:17:31.250Z,2.50
2019-02-23T04:20:20.418Z,3.00
2019-02-23T04:23:09.856Z,2.83
2019-02-23T04:25:58.880Z,2.10
2019-02-23T04:28:47.631Z,3.03
2019-02-23T04:31:36.401Z,2.70
2019-02-23T04:34:25.412Z,1.73
2019-02-23T04:37:14.295Z,2.17
2019-02-23T04:40:03.316Z,2.70
2019-02-23T04:42:52.408Z,2.20
2019-02-23T04:45:41.403Z,2.80
2019-02-23T04:48:30.809Z,2.27
2019-02-23T04:51:20.249Z,3.27
2019-02-23T04:54:09.369Z,2.90
2019-02-23T04:56:58.195Z,2.83
2019-02-23T04:59:47.372Z,2.00
2019-02-23T05:02:37.236Z,4.70
2019-02-23T05:05:26.423Z,3.23
2019-02-23T05:08:15.849Z,2.17
2019-02-23T05:11:04.749Z,2.10
2019-02-23T05:13:53.670Z,3.53
2019-02-23T05:16:43.545Z,2.50
2019-02-23T05:19:32.944Z,3.83
2019-02-23T05:22:21.720Z,1.73
2019-02-23T05:25:10.817Z,3.40
2019-02-23T05:27:59.766Z,3.23
2019-02-23T05:30:48.856Z,2.97
2019-02-23T05:33:37.912Z,1.93
2019-02-23T05:36:26.849Z,2.10
2019-02-23T05:39:17.866Z,4.07
2019-02-23T05:42:06.916Z,3.17
2019-02-23T05:44:56.448Z,2.00
2019-02-23T05:47:45.223Z,2.17
2019-02-23T05:50:34.041Z,3.13
2019-02-23T05:53:23.163Z,3.00
2019-02-23T05:56:16.002Z,3.40
2019-02-23T05:59:03.293Z,3.57
2019-02-23T06:01:52.975Z,2.70
2019-02-23T06:04:48.841Z,1.90
2019-02-23T06:07:38.293Z,2.50
2019-02-23T06:10:27.259Z,2.67
2019-02-23T06:13:16.008Z,3.50
2019-02-23T06:16:05.618Z,3.20
2019-02-23T06:18:54.520Z,1.73
2019-02-23T06:21:53.662Z,2.30
2019-02-23T06:24:34.856Z,3.10
2019-02-23T06:27:24.299Z,2.77
2019-02-23T06:30:13.860Z,2.20
2019-02-23T06:33:02.897Z,2.70
2019-02-23T06:35:52.411Z,3.20
2019-02-23T06:38:41.757Z,4.90
2019-02-23T06:41:31.272Z,2.10
2019-02-23T06:44:20.242Z,2.40
2019-02-23T06:47:09.474Z,2.47
2019-02-23T06:49:58.381Z,3.13
2019-02-23T06:52:47.718Z,1.57
2019-02-23T06:55:37.084Z,2.10
2019-02-23T06:58:26.396Z,4.83
2019-02-23T07:01:16.005Z,3.33
2019-02-23T07:04:05.111Z,4.13
2019-02-23T07:06:54.297Z,3.73
2019-02-23T07:09:44.056Z,2.67
2019-02-23T07:12:33.282Z,3.53
2019-02-23T07:15:22.139Z,2.23
2019-02-23T07:18:11.777Z,2.80
2019-02-23T07:21:00.827Z,2.40
2019-02-23T07:23:50.233Z,2.30
2019-02-23T07:26:38.632Z,1.80
2019-02-23T07:29:27.806Z,2.13
2019-02-23T07:32:16.797Z,1.93
2019-02-23T07:35:06.541Z,3.13
2019-02-23T07:37:55.576Z,1.43
2019-02-23T07:40:45.479Z,2.17
2019-02-23T07:43:34.446Z,2.17
2019-02-23T07:46:23.762Z,2.03
2019-02-23T07:49:13.334Z,2.13
2019-02-23T07:52:02.333Z,2.70
2019-02-23T07:54:51.870Z,3.07
2019-02-23T07:57:41.289Z,2.33
2019-02-23T08:00:30.889Z,2.60
2019-02-23T08:03:19.791Z,2.57
2019-02-23T08:06:09.750Z,3.40
2019-02-23T08:08:58.768Z,2.10
2019-02-23T08:11:47.979Z,2.20
2019-02-23T08:14:37.092Z,2.90
2019-02-23T08:17:26.545Z,2.50
2019-02-23T08:20:16.521Z,3.03
2019-02-23T08:23:05.548Z,2.57
2019-02-23T08:25:55.246Z,1.93
2019-02-23T08:28:44.726Z,2.60
2019-02-23T08:31:33.313Z,2.10
2019-02-23T08:34:22.328Z,1.83
2019-02-23T08:37:11.519Z,3.20
2019-02-23T08:40:01.331Z,1.80
2019-02-23T08:42:50.485Z,1.83
2019-02-23T08:45:39.622Z,2.40
2019-02-23T08:48:28.660Z,2.27
2019-02-23T08:51:17.775Z,2.83
2019-02-23T08:54:07.278Z,2.20
2019-02-23T08:56:56.551Z,3.00
2019-02-23T08:59:45.296Z,1.97
2019-02-23T09:02:34.518Z,1.57
2019-02-23T09:05:23.493Z,2.37
2019-02-23T09:08:12.626Z,3.17
2019-02-23T09:11:01.554Z,2.10
2019-02-23T09:13:51.157Z,2.53
2019-02-23T09:16:39.854Z,3.30
2019-02-23T09:19:29.669Z,2.47
2019-02-23T09:22:18.874Z,3.20
2019-02-23T09:25:08.636Z,3.33
2019-02-23T09:27:57.634Z,2.80
2019-02-23T09:30:47.703Z,2.20
2019-02-23T09:33:37.092Z,2.33
2019-02-23T09:36:26.834Z,2.90
2019-02-23T09:39:15.838Z,2.07
2019-02-23T09:42:07.749Z,2.27
2019-02-23T09:44:56.145Z,2.03
2019-02-23T09:47:45.530Z,2.50
2019-02-23T09:50:35.134Z,2.07
2019-02-23T09:53:24.097Z,1.87
2019-02-23T09:56:13.108Z,3.27
2019-02-23T09:59:02.593Z,3.13
2019-02-23T10:01:51.992Z,2.50
2019-02-23T10:04:41.148Z,1.70
2019-02-23T10:07:30.366Z,2.03
2019-02-23T10:10:19.684Z,1.70
2019-02-23T10:13:08.430Z,2.37
2019-02-23T10:15:57.752Z,2.60
2019-02-23T10:18:46.711Z,3.20
2019-02-23T10:21:38.010Z,2.87
2019-02-23T10:24:27.272Z,1.80
2019-02-23T10:27:16.246Z,2.47
2019-02-23T10:30:06.137Z,2.47
2019-02-23T10:32:54.927Z,2.20
2019-02-23T10:35:44.258Z,3.00
2019-02-23T10:38:32.968Z,2.70
2019-02-23T10:41:22.496Z,1.73
2019-02-23T10:44:12.177Z,1.87
2019-02-23T10:47:01.423Z,2.87
2019-02-23T10:49:51.099Z,2.07
2019-02-23T10:52:39.562Z,2.23
2019-02-23T10:55:29.045Z,2.30
2019-02-23T10:58:18.375Z,2.77
2019-02-23T11:01:07.585Z,2.30
2019-02-23T11:03:56.541Z,3.03
2019-02-23T11:06:45.878Z,2.70
2019-02-23T11:09:36.841Z,2.80
2019-02-23T11:12:25.774Z,2.30
2019-02-23T11:15:15.439Z,3.00
2019-02-23T11:18:04.335Z,2.13
2019-02-23T11:20:53.885Z,2.50
2019-02-23T11:23:44.911Z,2.70
2019-02-23T11:26:34.509Z,3.07
2019-02-23T11:29:23.344Z,2.47
2019-02-23T11:32:12.609Z,1.63
2019-02-23T11:35:02.037Z,3.60
2019-02-23T11:37:51.405Z,2.60
2019-02-23T11:40:40.491Z,2.63
2019-02-23T11:43:29.473Z,2.33
2019-02-23T11:46:19.628Z,2.00
2019-02-23T11:49:08.875Z,2.47
2019-02-23T11:51:58.501Z,1.70
2019-02-23T11:54:47.947Z,2.13
2019-02-23T11:57:37.006Z,3.30
2019-02-23T12:00:26.746Z,2.93
2019-02-23T12:03:16.057Z,2.33
2019-02-23T12:06:04.761Z,2.23
2019-02-23T12:08:53.939Z,3.17
2019-02-23T12:11:43.174Z,2.83
2019-02-23T12:14:32.008Z,3.17
2019-02-23T12:17:21.570Z,2.77
2019-02-23T12:20:11.193Z,1.83
2019-02-23T12:23:00.123Z,2.63
2019-02-23T12:25:49.932Z,1.87
2019-02-23T12:28:39.359Z,2.30
2019-02-23T12:31:28.489Z,2.33
2019-02-23T12:34:17.535Z,2.13
2019-02-23T12:37:06.763Z,2.17
2019-02-23T12:39:56.071Z,2.43
2019-02-23T12:42:46.212Z,1.80
2019-02-23T12:45:35.833Z,2.20
2019-02-23T12:48:25.316Z,2.63
2019-02-23T12:51:14.781Z,1.83
2019-02-23T12:54:04.090Z,2.53
2019-02-23T12:56:53.254Z,2.10
2019-02-23T12:59:42.429Z,4.57
2019-02-23T13:02:31.963Z,3.27
2019-02-23T13:05:20.885Z,2.07
2019-02-23T13:08:10.166Z,2.10
2019-02-23T13:11:00.981Z,2.43
2019-02-23T13:14:40.363Z,1.70
2019-02-23T13:17:53.225Z,1.73
2019-02-23T13:21:17.219Z,1.90
2019-02-23T13:24:56.594Z,1.97
2019-02-23T13:28:16.581Z,3.27
2019-02-23T13:32:08.299Z,1.63
2019-02-23T13:35:25.115Z,2.80
2019-02-23T13:39:07.537Z,3.03
2019-02-23T13:42:37.018Z,1.73
2019-02-23T13:45:55.055Z,2.73
2019-02-23T13:49:34.021Z,2.93
2019-02-23T13:53:01.242Z,2.37
2019-02-23T13:56:26.407Z,2.47
2019-02-23T13:59:47.077Z,2.37
2019-02-23T14:03:02.337Z,3.40
2019-02-23T14:06:29.586Z,3.47
2019-02-23T14:10:11.142Z,2.20
2019-02-23T14:13:25.386Z,1.60
2019-02-23T14:16:59.785Z,1.30
2019-02-23T14:20:17.734Z,2.47
2019-02-23T14:23:28.717Z,2.97
2019-02-23T14:27:01.578Z,2.90
2019-02-23T14:30:00.358Z,2.50
2019-02-23T14:33:43.066Z,2.10
2019-02-23T14:37:12.135Z,1.73
2019-02-23T14:40:47.484Z,2.40
2019-02-23T14:44:08.898Z,2.00
2019-02-23T14:47:42.768Z,14.23
2019-02-23T14:51:19.711Z,13.00
2019-02-23T14:54:43.204Z,13.57
2019-02-23T14:58:34.171Z,10.90
2019-02-23T15:01:43.407Z,11.90
2019-02-23T15:05:18.979Z,11.67
2019-02-23T15:08:21.163Z,11.97
2019-02-23T15:11:43.523Z,10.73
2019-02-23T15:15:14.593Z,11.07
2019-02-23T15:18:41.805Z,10.90
2019-02-23T15:22:08.159Z,9.87
2019-02-23T15:25:49.950Z,9.43
2019-02-23T15:29:37.883Z,9.75
2019-02-23T15:33:20.760Z,10.03
2019-02-23T15:37:00.144Z,9.87
2019-02-23T15:40:04.909Z,10.10
2019-02-23T15:43:43.789Z,9.30
